Time;durP1;ratioP1;P1;durP2;ratioP2;P2;SDS_P1;SDS_P2;PMS_P1;PMS_P2;Temp;Humidity;BMP_temperature;BMP_pressure;BME280_temperature;BME280_humidity;BME280_pressure;Samples;Min_cycle;Max_cycle;Signal;HPM_P1;HPM_P2
2023/08/19 00:01:43;;;;;;;29.95;25.67;;;20.60;99.90;;;;;;5014964;28;20060;-61
2023/08/19 00:04:10;;;;;;;28.70;24.80;;;21.50;99.90;;;;;;5023522;28;20400;-60
2023/08/19 00:06:40;;;;;;;28.85;24.83;;;21.20;99.90;;;;;;5021547;28;20037;-61
2023/08/19 00:09:09;;;;;;;29.65;26.45;;;21.00;99.90;;;;;;5019268;28;20491;-61
2023/08/19 00:11:38;;;;;;;31.75;28.30;;;20.90;99.90;;;;;;5026206;28;20048;-60
2023/08/19 00:14:04;;;;;;;31.05;25.13;;;21.40;99.90;;;;;;5029427;28;20045;-61
2023/08/19 00:16:30;;;;;;;30.58;27.30;;;21.50;99.90;;;;;;5017555;28;20030;-60
2023/08/19 00:18:56;;;;;;;30.23;26.92;;;20.40;99.90;;;;;;5007191;28;20049;-61
2023/08/19 00:21:22;;;;;;;36.70;29.77;;;20.90;99.90;;;;;;5025668;28;20046;-60
2023/08/19 00:23:48;;;;;;;28.77;25.63;;;20.50;99.90;;;;;;5025560;28;20041;-60
2023/08/19 00:26:14;;;;;;;29.65;26.50;;;20.40;99.90;;;;;;5015877;28;20124;-60
2023/08/19 00:28:40;;;;;;;31.15;26.77;;;20.50;99.90;;;;;;5021681;28;20042;-61
2023/08/19 00:31:07;;;;;;;30.88;27.33;;;20.40;99.90;;;;;;5018170;28;20041;-61
2023/08/19 00:33:33;;;;;;;29.75;24.90;;;20.50;99.90;;;;;;5026692;28;20042;-61
2023/08/19 00:35:59;;;;;;;29.92;24.75;;;21.50;99.90;;;;;;5021502;28;20045;-60
2023/08/19 00:38:25;;;;;;;31.63;25.83;;;21.10;99.90;;;;;;5017778;28;20116;-61
2023/08/19 00:40:50;;;;;;;27.58;24.27;;;20.30;99.90;;;;;;5028115;28;20106;-61
2023/08/19 00:43:16;;;;;;;26.55;23.40;;;21.30;99.90;;;;;;5027387;28;20041;-61
2023/08/19 00:45:47;;;;;;;26.55;22.45;;;20.60;99.90;;;;;;5028708;28;20523;-61
2023/08/19 00:48:15;;;;;;;25.52;22.77;;;21.40;99.90;;;;;;5028857;28;20518;-60
2023/08/19 00:50:41;;;;;;;26.52;23.63;;;21.40;99.90;;;;;;5023959;28;20049;-61
2023/08/19 00:53:11;;;;;;;27.15;23.70;;;20.40;99.90;;;;;;5022290;28;20104;-61
2023/08/19 00:55:37;;;;;;;24.25;21.65;;;21.50;99.90;;;;;;5025953;28;20045;-60
2023/08/19 00:58:03;;;;;;;28.15;23.05;;;21.20;99.90;;;;;;5026520;28;20034;-61
2023/08/19 01:00:31;;;;;;;27.40;23.02;;;21.10;99.90;;;;;;5026212;28;20044;-61
2023/08/19 01:02:57;;;;;;;34.20;27.83;;;20.80;99.90;;;;;;5021013;28;20042;-61
2023/08/19 01:05:36;;;;;;;26.80;22.80;;;21.00;99.90;;;;;;5020639;28;20051;-61
2023/08/19 01:08:04;;;;;;;26.50;23.05;;;20.10;99.90;;;;;;5024907;28;20042;-61
2023/08/19 01:10:38;;;;;;;26.10;23.30;;;20.10;99.90;;;;;;5015664;28;20048;-61
2023/08/19 01:13:14;;;;;;;31.30;26.02;;;21.10;99.90;;;;;;5019494;28;20045;-60
2023/08/19 01:16:06;;;;;;;31.05;23.67;;;20.40;99.90;;;;;;5015959;28;20060;-61
2023/08/19 01:18:33;;;;;;;31.52;25.02;;;20.30;99.90;;;;;;5017875;28;20057;-61
2023/08/19 01:21:01;;;;;;;29.48;24.98;;;20.30;99.90;;;;;;5022358;28;20034;-60
2023/08/19 01:23:32;;;;;;;28.55;25.38;;;20.30;99.90;;;;;;5025109;28;20572;-61
2023/08/19 01:25:59;;;;;;;26.40;22.17;;;20.50;99.90;;;;;;5027000;28;20045;-60
2023/08/19 01:28:25;;;;;;;27.33;24.42;;;20.30;99.90;;;;;;5023896;28;20087;-61
2023/08/19 01:30:51;;;;;;;26.23;21.95;;;20.10;99.90;;;;;;5026621;28;20038;-61
2023/08/19 01:33:18;;;;;;;24.85;22.15;;;20.40;99.90;;;;;;5022627;28;20484;-61
2023/08/19 01:36:11;;;;;;;27.10;23.02;;;20.20;99.90;;;;;;5026239;28;20037;-60
2023/08/19 01:38:43;;;;;;;26.63;23.90;;;21.00;99.90;;;;;;5022177;28;20433;-61
2023/08/19 01:41:10;;;;;;;25.40;22.67;;;20.10;99.90;;;;;;5018791;28;20415;-60
2023/08/19 01:43:37;;;;;;;23.30;20.80;;;20.40;99.90;;;;;;5020958;28;20055;-61
2023/08/19 01:46:06;;;;;;;28.05;25.02;;;20.90;99.90;;;;;;5027222;28;20458;-61
2023/08/19 01:48:31;;;;;;;24.83;20.95;;;20.40;99.90;;;;;;5023225;28;20045;-61
2023/08/19 01:50:57;;;;;;;25.85;22.85;;;21.00;99.90;;;;;;5021709;28;20380;-61
2023/08/19 01:53:23;;;;;;;28.83;23.85;;;20.90;99.90;;;;;;5019671;28;20045;-61
2023/08/19 01:55:48;;;;;;;26.70;23.80;;;20.20;99.90;;;;;;5024152;28;20491;-60
2023/08/19 01:58:14;;;;;;;25.15;22.48;;;19.90;99.90;;;;;;5026866;28;20056;-60
2023/08/19 02:00:40;;;;;;;26.27;22.77;;;21.10;99.90;;;;;;5027456;28;20048;-60
2023/08/19 02:03:07;;;;;;;23.83;20.83;;;19.90;99.90;;;;;;5026967;28;20038;-60
2023/08/19 02:05:32;;;;;;;24.63;20.90;;;19.70;99.90;;;;;;5012961;28;20050;-60
2023/08/19 02:07:58;;;;;;;26.98;24.02;;;20.00;99.90;;;;;;5022537;28;20454;-61
2023/08/19 02:10:24;;;;;;;25.05;22.05;;;20.30;99.90;;;;;;5016566;28;20037;-61
2023/08/19 02:12:49;;;;;;;22.45;20.05;;;20.00;99.90;;;;;;4997860;28;20409;-60
2023/08/19 02:15:15;;;;;;;28.38;25.17;;;19.90;99.90;;;;;;5020583;28;20029;-60
2023/08/19 02:17:44;;;;;;;24.55;21.88;;;20.10;99.90;;;;;;5012105;28;20504;-59
2023/08/19 02:20:10;;;;;;;25.77;22.63;;;20.10;99.90;;;;;;5004962;28;20029;-60
2023/08/19 02:22:38;;;;;;;30.23;25.02;;;20.20;99.90;;;;;;5020002;28;20266;-61
2023/08/19 02:25:04;;;;;;;25.00;22.10;;;20.10;99.90;;;;;;5020887;28;20094;-61
2023/08/19 02:27:31;;;;;;;23.65;20.67;;;19.60;99.90;;;;;;5018617;28;20033;-60
2023/08/19 02:29:58;;;;;;;25.33;22.42;;;19.90;99.90;;;;;;5007163;28;20041;-60
2023/08/19 02:32:24;;;;;;;24.40;21.83;;;19.90;99.90;;;;;;5023766;28;20504;-60
2023/08/19 02:34:49;;;;;;;28.98;24.63;;;19.90;99.90;;;;;;5014012;28;20049;-60
2023/08/19 02:37:15;;;;;;;25.55;22.52;;;19.80;99.90;;;;;;5024136;28;20129;-60
2023/08/19 02:39:44;;;;;;;23.00;20.55;;;20.60;99.90;;;;;;5024738;28;20525;-60
2023/08/19 02:42:11;;;;;;;26.52;22.33;;;20.20;99.90;;;;;;5021785;28;20037;-61
2023/08/19 02:44:37;;;;;;;24.63;21.13;;;20.50;99.90;;;;;;5027145;28;20049;-59
2023/08/19 02:47:03;;;;;;;24.65;20.45;;;19.60;99.90;;;;;;5026976;28;20123;-61
2023/08/19 02:49:31;;;;;;;26.90;22.88;;;20.30;99.90;;;;;;5021056;28;20042;-61
2023/08/19 02:51:57;;;;;;;24.48;21.08;;;20.10;99.90;;;;;;5026050;28;20127;-61
2023/08/19 02:54:23;;;;;;;26.50;23.67;;;20.10;99.90;;;;;;5032462;28;20049;-61
2023/08/19 02:56:49;;;;;;;29.00;25.85;;;20.10;99.90;;;;;;5031564;28;20044;-61
2023/08/19 02:59:15;;;;;;;25.63;22.80;;;20.80;99.90;;;;;;5026816;28;20066;-59
2023/08/19 03:01:41;;;;;;;29.05;25.63;;;20.00;99.90;;;;;;5020416;28;20411;-60
2023/08/19 03:04:07;;;;;;;29.65;26.15;;;20.20;99.90;;;;;;5030200;28;20041;-60
2023/08/19 03:06:33;;;;;;;30.25;24.75;;;20.60;99.90;;;;;;5027442;28;20548;-60
2023/08/19 03:08:59;;;;;;;29.25;25.48;;;20.10;99.90;;;;;;5010763;28;20534;-61
2023/08/19 03:11:29;;;;;;;29.52;25.65;;;21.30;99.90;;;;;;5023781;28;20045;-61
2023/08/19 03:13:55;;;;;;;26.35;22.55;;;20.10;99.90;;;;;;5006652;28;20125;-60
2023/08/19 03:16:20;;;;;;;25.13;22.27;;;20.50;99.90;;;;;;5027508;28;20116;-60
2023/08/19 03:18:46;;;;;;;26.15;22.85;;;20.00;99.90;;;;;;5010174;28;20116;-61
2023/08/19 03:21:12;;;;;;;29.33;22.08;;;20.40;99.90;;;;;;5031236;28;20087;-61
2023/08/19 03:23:38;;;;;;;23.65;21.00;;;20.20;99.90;;;;;;5032416;28;20037;-61
2023/08/19 03:26:03;;;;;;;23.80;20.33;;;20.50;99.90;;;;;;5030004;28;20110;-61
2023/08/19 03:28:29;;;;;;;27.38;23.40;;;20.00;99.90;;;;;;5027567;28;20041;-61
2023/08/19 03:30:55;;;;;;;26.20;23.27;;;20.70;99.90;;;;;;5027605;28;20553;-60
2023/08/19 03:33:20;;;;;;;24.50;21.85;;;20.10;99.90;;;;;;5027264;28;20625;-61
2023/08/19 03:35:46;;;;;;;28.10;25.15;;;20.20;99.90;;;;;;5032751;28;20029;-59
2023/08/19 03:38:13;;;;;;;27.63;24.40;;;20.30;99.90;;;;;;5029944;28;20526;-61
2023/08/19 03:40:39;;;;;;;25.33;22.17;;;20.40;99.90;;;;;;5031824;28;20119;-61
2023/08/19 03:43:07;;;;;;;23.02;19.55;;;20.50;99.90;;;;;;5023713;28;20515;-60
2023/08/19 03:45:34;;;;;;;23.67;20.88;;;20.40;99.90;;;;;;5024934;28;20048;-60
2023/08/19 03:47:59;;;;;;;24.23;20.90;;;20.10;99.90;;;;;;5026680;28;20045;-61
2023/08/19 03:50:25;;;;;;;24.60;21.83;;;20.10;99.90;;;;;;5028365;28;20040;-61
2023/08/19 03:52:51;;;;;;;28.48;25.13;;;20.10;99.90;;;;;;5029172;28;20037;-61
2023/08/19 03:55:16;;;;;;;26.45;22.95;;;21.10;99.90;;;;;;5024699;28;20503;-61
2023/08/19 03:57:42;;;;;;;24.85;20.55;;;21.00;99.90;;;;;;5030561;28;20039;-61
2023/08/19 04:00:09;;;;;;;26.95;22.77;;;20.40;99.90;;;;;;5024359;28;20038;-61
2023/08/19 04:02:34;;;;;;;26.73;22.23;;;21.20;99.90;;;;;;5029658;28;20053;-60
2023/08/19 04:05:05;;;;;;;26.00;21.70;;;21.00;1.00;;;;;;5014163;28;20057;-61
2023/08/19 04:07:31;;;;;;;20.73;18.27;;;20.20;1.00;;;;;;5018588;28;20103;-60
2023/08/19 04:09:57;;;;;;;24.50;20.52;;;20.10;1.00;;;;;;5021784;28;20496;-60
2023/08/19 04:12:23;;;;;;;22.10;18.58;;;20.80;1.00;;;;;;5028491;28;21445;-61
2023/08/19 04:14:49;;;;;;;21.55;18.98;;;20.30;1.00;;;;;;5014534;28;20038;-61
2023/08/19 04:17:15;;;;;;;26.08;23.27;;;20.10;99.90;;;;;;5018509;28;20109;-60
2023/08/19 04:19:41;;;;;;;23.63;19.27;;;20.40;99.90;;;;;;5017483;28;20061;-60
2023/08/19 04:22:06;;;;;;;21.70;19.27;;;20.40;99.90;;;;;;5019471;28;20455;-60
2023/08/19 04:24:37;;;;;;;20.20;18.05;;;20.90;99.90;;;;;;5026562;28;20384;-61
2023/08/19 04:27:03;;;;;;;24.40;21.80;;;20.10;99.90;;;;;;5016965;28;20041;-60
2023/08/19 04:29:32;;;;;;;26.90;21.52;;;21.30;99.90;;;;;;5026115;28;20071;-61
2023/08/19 04:32:02;;;;;;;24.63;21.00;;;20.30;99.90;;;;;;5024684;28;20045;-62
2023/08/19 04:34:28;;;;;;;20.00;17.88;;;20.40;99.90;;;;;;5020481;28;20046;-59
2023/08/19 04:36:55;;;;;;;21.02;18.65;;;20.30;99.90;;;;;;5025396;28;20025;-61
2023/08/19 04:39:22;;;;;;;24.45;21.92;;;21.20;99.90;;;;;;5019119;28;20448;-61
2023/08/19 04:41:48;;;;;;;22.00;18.85;;;21.20;99.90;;;;;;5023895;28;20505;-60
2023/08/19 04:44:17;;;;;;;24.30;21.70;;;21.00;99.90;;;;;;5028539;28;20041;-61
2023/08/19 04:46:43;;;;;;;21.77;19.00;;;20.80;99.90;;;;;;5020270;28;20042;-60
2023/08/19 04:49:08;;;;;;;24.58;20.42;;;20.30;99.90;;;;;;5020585;28;20038;-60
2023/08/19 04:51:37;;;;;;;25.73;19.92;;;21.20;99.90;;;;;;5030147;28;20217;-61
2023/08/19 04:54:04;;;;;;;19.23;17.15;;;21.40;99.90;;;;;;5029606;28;20121;-61
2023/08/19 04:56:30;;;;;;;23.08;20.23;;;20.50;99.90;;;;;;5022245;28;20104;-61
2023/08/19 04:59:00;;;;;;;22.85;20.35;;;20.40;99.90;;;;;;5030778;28;20057;-61
2023/08/19 05:01:26;;;;;;;23.65;20.27;;;21.40;99.90;;;;;;5027167;28;20038;-61
2023/08/19 05:03:52;;;;;;;23.70;20.63;;;21.70;99.90;;;;;;5026448;28;20052;-61
2023/08/19 05:06:17;;;;;;;23.35;20.15;;;21.30;99.90;;;;;;5019852;28;20038;-61
2023/08/19 05:08:46;;;;;;;19.63;16.80;;;21.50;99.90;;;;;;5020120;28;20046;-61
2023/08/19 05:11:12;;;;;;;22.63;20.00;;;21.40;99.90;;;;;;5027486;28;20045;-61
2023/08/19 05:13:38;;;;;;;20.85;17.85;;;21.30;99.90;;;;;;5021728;28;20081;-61
2023/08/19 05:16:04;;;;;;;21.63;18.08;;;22.20;99.90;;;;;;5017574;28;20064;-61
2023/08/19 05:18:30;;;;;;;19.85;17.63;;;21.30;99.90;;;;;;5001086;28;20475;-61
2023/08/19 05:20:55;;;;;;;20.83;17.77;;;20.60;99.90;;;;;;5023449;28;20048;-61
2023/08/19 05:23:21;;;;;;;21.35;19.15;;;20.70;99.90;;;;;;5023074;28;20041;-62
2023/08/19 05:25:47;;;;;;;20.75;18.02;;;21.70;99.90;;;;;;5017814;28;20069;-61
2023/08/19 05:28:12;;;;;;;21.08;18.20;;;23.30;99.90;;;;;;5025498;28;20472;-61
2023/08/19 05:30:38;;;;;;;23.77;19.77;;;20.90;99.90;;;;;;5015709;28;20163;-61
2023/08/19 05:33:04;;;;;;;24.20;18.95;;;21.80;99.90;;;;;;5022834;28;20041;-61
2023/08/19 05:35:29;;;;;;;19.40;17.25;;;21.00;99.90;;;;;;5016728;28;20120;-61
2023/08/19 05:37:55;;;;;;;20.15;17.88;;;22.00;99.90;;;;;;5021188;28;20037;-61
2023/08/19 05:40:21;;;;;;;21.00;18.35;;;20.70;99.90;;;;;;5024148;28;20511;-61
2023/08/19 05:42:47;;;;;;;22.33;19.92;;;22.00;99.90;;;;;;5022097;28;20030;-62
2023/08/19 05:45:13;;;;;;;20.75;18.55;;;22.10;99.90;;;;;;5024805;28;20029;-59
2023/08/19 05:47:38;;;;;;;22.00;18.35;;;22.20;99.90;;;;;;5021683;28;20450;-61
2023/08/19 05:50:06;;;;;;;20.92;18.73;;;21.70;99.90;;;;;;5020749;28;20037;-61
2023/08/19 05:52:32;;;;;;;22.63;17.98;;;21.70;99.90;;;;;;5020283;28;20038;-61
2023/08/19 05:54:57;;;;;;;22.95;19.90;;;22.20;99.90;;;;;;5014484;28;20053;-61
2023/08/19 05:57:23;;;;;;;19.17;16.58;;;21.00;99.90;;;;;;5023487;28;20045;-61
2023/08/19 05:59:49;;;;;;;17.55;15.18;;;21.50;99.90;;;;;;5028293;28;20109;-61
2023/08/19 06:02:15;;;;;;;21.13;18.50;;;21.90;99.90;;;;;;5026421;28;20112;-61
2023/08/19 06:04:42;;;;;;;22.88;19.77;;;21.10;99.90;;;;;;5021655;28;20056;-61
2023/08/19 06:07:08;;;;;;;21.40;18.60;;;21.90;99.90;;;;;;5022917;28;20109;-62
2023/08/19 06:09:34;;;;;;;21.05;18.45;;;21.10;99.90;;;;;;5023345;28;20045;-62
2023/08/19 06:12:02;;;;;;;20.73;18.50;;;21.70;99.90;;;;;;5023937;28;20045;-61
2023/08/19 06:14:27;;;;;;;22.30;19.15;;;21.10;99.90;;;;;;5013931;28;20053;-61
2023/08/19 06:16:53;;;;;;;21.45;18.55;;;21.30;99.90;;;;;;5025331;28;20033;-61
2023/08/19 06:19:19;;;;;;;20.75;18.33;;;22.20;99.90;;;;;;5020176;28;20036;-61
2023/08/19 06:21:46;;;;;;;21.48;17.27;;;21.80;99.90;;;;;;5016447;28;20128;-61
2023/08/19 06:24:11;;;;;;;20.80;17.75;;;21.80;99.90;;;;;;5014225;28;20045;-61
2023/08/19 06:26:37;;;;;;;19.73;17.60;;;22.00;99.90;;;;;;5019310;28;20041;-62
2023/08/19 06:29:03;;;;;;;19.38;16.80;;;21.90;99.90;;;;;;5017962;28;20044;-61
2023/08/19 06:31:29;;;;;;;19.38;17.00;;;21.40;99.90;;;;;;5017584;28;20376;-61
2023/08/19 06:33:55;;;;;;;18.33;15.88;;;21.40;99.90;;;;;;5018614;28;20034;-61
2023/08/19 06:36:28;;;;;;;22.05;17.90;;;22.50;99.90;;;;;;5022386;28;20111;-61
2023/08/19 06:39:05;;;;;;;21.38;17.58;;;21.80;99.90;;;;;;5028120;28;20036;-62
2023/08/19 06:41:35;;;;;;;18.30;16.33;;;22.10;99.90;;;;;;5025302;28;20042;-62
2023/08/19 06:44:03;;;;;;;19.05;16.05;;;22.30;99.90;;;;;;5023568;28;20450;-61
2023/08/19 06:46:30;;;;;;;18.05;15.80;;;21.60;99.90;;;;;;5020211;28;20060;-61
2023/08/19 06:48:57;;;;;;;18.50;16.50;;;22.60;99.90;;;;;;5021054;28;20115;-62
2023/08/19 06:51:24;;;;;;;19.10;16.48;;;22.60;99.90;;;;;;5006832;28;20037;-62
2023/08/19 06:53:50;;;;;;;19.60;16.90;;;22.30;99.90;;;;;;5017869;28;20052;-61
2023/08/19 06:56:38;;;;;;;19.92;17.30;;;22.60;99.90;;;;;;5021032;28;20087;-61
2023/08/19 06:59:20;;;;;;;18.85;16.85;;;22.80;99.90;;;;;;5027905;28;20033;-61
2023/08/19 07:01:53;;;;;;;19.13;16.27;;;22.50;99.90;;;;;;5018698;28;20455;-61
2023/08/19 07:04:27;;;;;;;21.60;16.13;;;22.60;99.90;;;;;;5005597;28;20053;-62
2023/08/19 07:06:56;;;;;;;19.27;16.38;;;22.40;99.90;;;;;;5016881;28;20041;-61
2023/08/19 07:09:25;;;;;;;18.88;15.90;;;22.50;99.90;;;;;;5019129;28;20119;-62
2023/08/19 07:11:53;;;;;;;20.55;16.65;;;21.90;99.90;;;;;;5026383;28;20037;-61
2023/08/19 07:14:19;;;;;;;20.00;17.17;;;22.60;99.90;;;;;;5026305;28;20399;-62
2023/08/19 07:16:48;;;;;;;18.80;16.80;;;22.60;99.90;;;;;;5023893;28;20478;-62
2023/08/19 07:19:17;;;;;;;19.33;16.38;;;22.50;99.90;;;;;;5022976;28;20037;-62
2023/08/19 07:21:46;;;;;;;19.33;15.05;;;22.70;99.90;;;;;;5017001;28;20491;-62
2023/08/19 07:24:13;;;;;;;20.35;16.05;;;22.60;99.90;;;;;;5002833;28;20156;-61
2023/08/19 07:26:39;;;;;;;18.27;15.57;;;22.90;99.90;;;;;;5017764;28;20038;-61
2023/08/19 07:29:05;;;;;;;18.40;15.55;;;22.40;99.90;;;;;;5024480;28;20037;-62
2023/08/19 07:31:32;;;;;;;17.23;14.60;;;22.70;99.90;;;;;;5018196;28;20061;-62
2023/08/19 07:33:59;;;;;;;16.10;14.18;;;22.80;99.90;;;;;;5025886;28;20554;-62
2023/08/19 07:36:26;;;;;;;21.45;15.45;;;22.90;99.90;;;;;;5023222;28;20038;-61
2023/08/19 07:38:52;;;;;;;19.95;14.35;;;22.70;99.90;;;;;;5022665;28;20041;-61
2023/08/19 07:41:19;;;;;;;19.60;13.95;;;22.80;99.90;;;;;;5025509;28;20045;-60
2023/08/19 07:43:45;;;;;;;17.85;13.55;;;22.90;99.90;;;;;;5027274;28;20106;-61
2023/08/19 07:46:17;;;;;;;16.48;13.10;;;23.10;99.90;;;;;;5022702;28;20042;-61
2023/08/19 07:48:44;;;;;;;18.15;13.38;;;23.20;99.90;;;;;;5022294;28;20041;-61
2023/08/19 07:51:13;;;;;;;18.42;13.57;;;23.10;99.90;;;;;;5027219;28;20067;-61
2023/08/19 07:53:38;;;;;;;15.70;13.80;;;23.20;99.90;;;;;;5024316;28;20049;-62
2023/08/19 07:56:08;;;;;;;20.73;13.57;;;23.30;99.90;;;;;;5026154;28;20037;-62
2023/08/19 07:58:36;;;;;;;16.90;14.23;;;23.20;99.90;;;;;;5024519;28;20038;-61
2023/08/19 08:01:02;;;;;;;16.48;13.13;;;23.80;99.90;;;;;;5030154;28;20033;-61
2023/08/19 08:03:28;;;;;;;14.98;13.32;;;23.50;99.90;;;;;;5026478;28;20554;-61
2023/08/19 08:05:54;;;;;;;14.07;11.93;;;23.60;99.90;;;;;;5023760;28;20033;-62
2023/08/19 08:08:20;;;;;;;16.27;12.90;;;23.00;92.40;;;;;;5027589;28;20045;-61
2023/08/19 08:10:45;;;;;;;15.68;12.50;;;23.70;66.80;;;;;;5022619;28;20136;-61
2023/08/19 08:13:11;;;;;;;20.08;13.02;;;24.00;32.20;;;;;;5022969;28;20111;-62
2023/08/19 08:15:37;;;;;;;15.85;12.27;;;23.50;1.00;;;;;;5027209;28;20610;-62
2023/08/19 08:18:03;;;;;;;15.30;12.68;;;23.80;1.00;;;;;;5006035;28;20407;-62
2023/08/19 08:20:29;;;;;;;15.80;13.38;;;24.10;1.00;;;;;;5025528;28;20049;-61
2023/08/19 08:22:55;;;;;;;14.85;12.60;;;23.00;1.00;;;;;;5022812;28;20041;-62
2023/08/19 08:25:20;;;;;;;14.35;12.70;;;24.80;1.00;;;;;;5018838;28;20239;-61
2023/08/19 08:27:46;;;;;;;15.00;12.75;;;24.00;1.00;;;;;;5020177;28;20571;-62
2023/08/19 08:30:12;;;;;;;16.00;11.80;;;24.60;99.90;;;;;;5019130;28;20034;-62
2023/08/19 08:32:37;;;;;;;14.40;11.90;;;24.30;99.90;;;;;;5019533;28;20077;-62
2023/08/19 08:35:04;;;;;;;15.00;11.77;;;23.80;99.90;;;;;;4987637;28;20041;-61
2023/08/19 08:37:29;;;;;;;15.85;11.65;;;24.20;99.90;;;;;;5020104;28;20037;-62
2023/08/19 08:39:55;;;;;;;14.45;11.18;;;24.10;99.90;;;;;;5005133;28;20045;-62
2023/08/19 08:42:23;;;;;;;14.27;12.63;;;23.80;99.90;;;;;;5015947;28;20503;-62
2023/08/19 08:44:50;;;;;;;19.02;13.45;;;24.20;99.90;;;;;;5020492;28;21071;-62
2023/08/19 08:47:16;;;;;;;16.25;13.93;;;24.60;99.90;;;;;;5017213;28;20571;-61
2023/08/19 08:49:45;;;;;;;16.67;12.88;;;24.40;99.90;;;;;;5023282;28;20041;-62
2023/08/19 08:52:10;;;;;;;16.90;13.52;;;24.90;99.90;;;;;;5017055;28;20113;-62
2023/08/19 08:54:37;;;;;;;14.82;13.15;;;23.70;99.90;;;;;;5024151;28;20148;-61
2023/08/19 08:57:03;;;;;;;14.68;12.63;;;24.10;99.90;;;;;;5029672;28;20135;-62
2023/08/19 08:59:29;;;;;;;14.93;12.88;;;23.70;99.90;;;;;;5028671;28;20124;-61
2023/08/19 09:01:55;;;;;;;18.50;13.57;;;24.90;1.00;;;;;;5016945;28;20029;-61
2023/08/19 09:04:23;;;;;;;17.17;13.70;;;24.00;1.00;;;;;;5023020;28;20041;-62
2023/08/19 09:06:56;;;;;;;15.60;13.05;;;24.10;1.00;;;;;;5025025;28;20057;-61
2023/08/19 09:09:24;;;;;;;16.87;12.87;;;23.80;1.00;;;;;;5029442;28;20045;-62
2023/08/19 09:11:54;;;;;;;18.10;12.95;;;24.70;1.00;;;;;;5018035;28;20038;-63
2023/08/19 09:14:40;;;;;;;15.75;13.43;;;24.30;1.00;;;;;;5019287;28;20037;-61
2023/08/19 09:17:06;;;;;;;17.52;13.45;;;24.80;1.00;;;;;;5019677;28;20030;-62
2023/08/19 09:19:32;;;;;;;19.75;13.93;;;24.50;1.00;;;;;;5024440;28;20048;-61
2023/08/19 09:21:58;;;;;;;16.30;13.23;;;24.70;1.00;;;;;;5020756;28;20415;-61
2023/08/19 09:24:23;;;;;;;18.75;14.00;;;25.00;1.00;;;;;;5021247;28;20062;-61
2023/08/19 09:26:58;;;;;;;16.08;12.65;;;24.20;1.00;;;;;;5002255;28;20041;-62
2023/08/19 09:29:24;;;;;;;18.85;13.05;;;24.10;1.00;;;;;;5019080;28;20448;-61
2023/08/19 09:31:56;;;;;;;14.88;13.25;;;25.00;1.00;;;;;;5021412;28;20112;-62
2023/08/19 09:34:22;;;;;;;14.68;12.45;;;25.20;1.00;;;;;;5016380;28;20049;-61
2023/08/19 09:36:48;;;;;;;18.55;13.57;;;24.60;99.90;;;;;;5019517;28;20033;-62
2023/08/19 09:39:13;;;;;;;15.77;13.27;;;25.30;1.00;;;;;;5007000;28;20399;-61
2023/08/19 09:41:39;;;;;;;21.63;13.48;;;25.40;1.00;;;;;;5022008;28;20034;-61
2023/08/19 09:44:15;;;;;;;16.60;13.88;;;24.90;1.00;;;;;;5015494;28;20052;-61
2023/08/19 09:46:42;;;;;;;14.57;12.82;;;24.10;1.00;;;;;;5019525;28;20046;-62
2023/08/19 09:49:09;;;;;;;18.35;13.27;;;24.30;1.00;;;;;;5027139;28;20568;-62
2023/08/19 09:51:35;;;;;;;16.13;13.93;;;24.30;1.00;;;;;;5022705;28;20415;-60
2023/08/19 09:54:09;;;;;;;17.10;14.20;;;24.70;1.00;;;;;;5013654;28;20038;-62
2023/08/19 09:56:35;;;;;;;15.75;12.98;;;24.50;1.00;;;;;;5023778;28;20091;-61
2023/08/19 09:59:01;;;;;;;16.05;13.05;;;25.20;1.00;;;;;;5028598;28;20034;-62
2023/08/19 10:01:27;;;;;;;16.55;13.02;;;25.30;99.90;;;;;;5026801;28;20518;-62
2023/08/19 10:03:53;;;;;;;16.70;13.38;;;24.60;99.90;;;;;;5014412;28;20404;-61
2023/08/19 10:06:26;;;;;;;19.75;13.60;;;25.60;99.90;;;;;;5020416;28;20056;-61
2023/08/19 10:09:05;;;;;;;18.73;14.13;;;25.70;99.90;;;;;;5013346;28;20124;-62
2023/08/19 10:11:33;;;;;;;20.95;14.15;;;25.60;99.90;;;;;;5024601;28;20048;-61
2023/08/19 10:14:02;;;;;;;18.05;13.48;;;25.90;99.90;;;;;;5020277;28;20048;-61
2023/08/19 10:16:31;;;;;;;16.13;13.32;;;25.80;99.90;;;;;;5020627;28;20414;-62
2023/08/19 10:18:58;;;;;;;15.00;13.40;;;25.70;99.90;;;;;;5028362;28;20285;-61
2023/08/19 10:21:25;;;;;;;16.08;12.73;;;25.70;99.90;;;;;;5017552;28;20045;-61
2023/08/19 10:23:52;;;;;;;18.05;15.00;;;26.10;99.90;;;;;;5019421;28;20046;-62
2023/08/19 10:26:18;;;;;;;18.38;15.00;;;25.50;99.90;;;;;;5024979;28;20045;-61
2023/08/19 10:29:05;;;;;;;16.98;14.95;;;25.90;90.30;;;;;;5016771;28;20045;-61
2023/08/19 10:31:32;;;;;;;17.98;15.13;;;25.40;82.20;;;;;;5027078;28;20099;-61
2023/08/19 10:34:22;;;;;;;18.80;14.30;;;25.70;96.10;;;;;;5024997;28;20095;-62
2023/08/19 10:37:07;;;;;;;18.88;15.43;;;25.00;99.90;;;;;;5019570;28;20639;-62
2023/08/19 10:39:33;;;;;;;18.13;15.32;;;25.60;64.60;;;;;;5021184;28;20041;-61
2023/08/19 10:41:58;;;;;;;19.95;15.85;;;26.10;32.90;;;;;;5017653;28;20033;-60
2023/08/19 10:44:27;;;;;;;19.27;15.93;;;26.20;25.20;;;;;;5023660;28;20115;-62
2023/08/19 10:47:10;;;;;;;19.75;16.83;;;26.40;1.00;;;;;;5021985;28;20029;-62
2023/08/19 10:49:36;;;;;;;20.87;17.30;;;26.40;1.00;;;;;;5022716;28;20526;-62
2023/08/19 10:52:06;;;;;;;20.58;18.38;;;26.00;99.90;;;;;;5016274;28;20077;-62
2023/08/19 10:54:40;;;;;;;22.58;19.20;;;25.70;99.90;;;;;;5026246;28;20133;-61
2023/08/19 10:57:06;;;;;;;22.08;18.73;;;26.10;1.00;;;;;;5028361;28;20056;-62
2023/08/19 10:59:34;;;;;;;24.10;20.98;;;26.30;1.00;;;;;;5019301;28;20549;-62
2023/08/19 11:01:59;;;;;;;29.25;23.85;;;26.10;99.90;;;;;;5023414;28;20454;-61
2023/08/19 11:04:25;;;;;;;26.27;22.80;;;26.30;99.90;;;;;;5012126;28;20038;-62
2023/08/19 11:06:52;;;;;;;28.55;25.27;;;25.90;99.90;;;;;;5020825;28;20042;-61
2023/08/19 11:09:19;;;;;;;35.92;27.65;;;26.20;1.00;;;;;;5026168;28;20491;-62
2023/08/19 11:11:47;;;;;;;42.50;33.47;;;25.90;1.00;;;;;;5024665;28;20507;-62
2023/08/19 11:14:17;;;;;;;45.10;34.80;;;24.90;1.00;;;;;;5012278;28;20060;-62
2023/08/19 11:16:48;;;;;;;40.40;33.40;;;24.60;1.00;;;;;;5004792;28;20034;-61
2023/08/19 11:19:13;;;;;;;38.20;29.52;;;24.60;6.00;;;;;;5011725;28;20033;-62
2023/08/19 11:21:43;;;;;;;41.85;31.02;;;25.50;1.00;;;;;;5022702;28;20030;-62
2023/08/19 11:24:09;;;;;;;41.35;32.78;;;25.40;10.90;;;;;;5031931;28;20033;-61
2023/08/19 11:26:45;;;;;;;43.63;33.63;;;25.40;12.20;;;;;;5020699;28;20310;-61
2023/08/19 11:29:11;;;;;;;44.08;29.55;;;25.10;1.00;;;;;;5015992;28;20041;-61
2023/08/19 11:31:38;;;;;;;35.08;28.85;;;25.30;1.00;;;;;;5022202;28;20045;-61
2023/08/19 11:34:11;;;;;;;32.20;23.52;;;25.40;1.00;;;;;;5025789;28;20096;-61
2023/08/19 11:36:38;;;;;;;25.95;21.40;;;25.80;1.00;;;;;;5025058;28;20044;-62
2023/08/19 11:39:05;;;;;;;28.77;22.35;;;25.20;1.00;;;;;;5022342;28;20075;-60
2023/08/19 11:41:31;;;;;;;26.17;18.90;;;24.70;1.00;;;;;;5024727;28;20531;-62
2023/08/19 11:43:58;;;;;;;22.25;15.13;;;24.50;1.00;;;;;;5029879;28;20414;-61
2023/08/19 11:46:31;;;;;;;23.52;17.33;;;24.50;99.90;;;;;;5020413;28;20447;-61
2023/08/19 11:48:59;;;;;;;24.75;18.15;;;23.90;5.90;;;;;;5015915;28;20045;-61
2023/08/19 11:51:27;;;;;;;23.85;17.80;;;23.80;99.90;;;;;;5027724;28;20041;-61
2023/08/19 11:53:55;;;;;;;23.83;17.98;;;23.20;99.90;;;;;;5030611;28;20499;-61
2023/08/19 11:56:21;;;;;;;23.15;18.08;;;23.10;1.00;;;;;;5024634;28;20092;-61
2023/08/19 11:58:51;;;;;;;20.90;15.77;;;23.60;99.90;;;;;;5020582;28;20096;-62
2023/08/19 12:01:21;;;;;;;18.80;14.15;;;22.70;99.90;;;;;;5026740;28;20034;-61
2023/08/19 12:03:49;;;;;;;18.80;14.77;;;23.10;1.00;;;;;;5023162;28;20092;-60
2023/08/19 12:06:16;;;;;;;19.45;13.98;;;23.20;99.90;;;;;;5023688;28;20041;-62
2023/08/19 12:08:44;;;;;;;17.02;12.20;;;23.00;1.00;;;;;;5017785;28;20118;-61
2023/08/19 12:11:11;;;;;;;17.52;11.25;;;23.40;99.90;;;;;;5024163;28;20040;-61
2023/08/19 12:13:37;;;;;;;17.20;11.35;;;23.30;99.90;;;;;;5022493;28;20049;-61
2023/08/19 12:16:04;;;;;;;13.98;10.00;;;23.50;66.50;;;;;;5006787;28;20041;-61
2023/08/19 12:18:32;;;;;;;15.65;9.23;;;23.90;1.00;;;;;;5021114;28;20037;-61
2023/08/19 12:20:59;;;;;;;11.98;8.45;;;23.50;99.90;;;;;;5024545;28;20037;-61
2023/08/19 12:23:25;;;;;;;11.23;7.50;;;23.70;99.90;;;;;;5030430;28;20512;-61
2023/08/19 12:25:56;;;;;;;10.38;7.43;;;23.50;99.90;;;;;;5024064;28;20560;-62
2023/08/19 12:28:23;;;;;;;10.20;6.65;;;24.00;99.90;;;;;;5024117;28;20041;-62
2023/08/19 12:30:49;;;;;;;11.43;7.25;;;23.80;99.90;;;;;;5020597;28;20053;-61